Time;durP1;ratioP1;P1;durP2;ratioP2;P2;SDS_P1;SDS_P2;PMS_P1;PMS_P2;Temp;Humidity;BMP_temperature;BMP_pressure;BME280_temperature;BME280_humidity;BME280_pressure;Samples;Min_cycle;Max_cycle;Signal;HPM_P1;HPM_P2
2021/09/27 00:00:43;;;;;;;15.97;14.10;;;;;;;14.72;83.46;95832.63;6185341;23;20154;-80
2021/09/27 00:03:08;;;;;;;15.17;13.57;;;;;;;14.75;83.38;95832.28;6185437;23;20163;-81
2021/09/27 00:05:34;;;;;;;15.77;14.13;;;;;;;14.75;83.22;95829.66;6185354;23;20153;-80
2021/09/27 00:08:00;;;;;;;17.58;14.02;;;;;;;14.70;83.31;95829.38;6185745;23;20498;-80
2021/09/27 00:10:36;;;;;;;17.25;14.70;;;;;;;14.68;83.62;95832.16;6186005;23;20213;-80
2021/09/27 00:13:02;;;;;;;16.45;14.57;;;;;;;14.77;83.28;95834.75;6186311;23;20166;-80
2021/09/27 00:15:31;;;;;;;14.85;13.35;;;;;;;14.69;83.38;95838.19;6185283;23;20194;-80
2021/09/27 00:17:57;;;;;;;15.77;13.57;;;;;;;14.65;83.96;95831.66;6185756;23;20181;-80
2021/09/27 00:20:22;;;;;;;18.30;14.43;;;;;;;14.59;84.14;95829.72;6186069;23;20445;-80
2021/09/27 00:22:48;;;;;;;15.40;13.90;;;;;;;14.52;84.51;95833.97;6185945;23;20210;-80
2021/09/27 00:25:20;;;;;;;16.52;14.68;;;;;;;14.53;84.19;95833.81;6185203;23;20151;-81
2021/09/27 00:27:45;;;;;;;15.40;13.83;;;;;;;14.53;84.40;95832.97;6186340;23;20584;-80
2021/09/27 00:30:12;;;;;;;14.93;13.18;;;;;;;14.61;83.42;95833.78;6161073;23;20143;-80
2021/09/27 00:32:38;;;;;;;15.60;13.45;;;;;;;14.68;82.87;95826.94;6161752;23;20158;-80
2021/09/27 00:35:04;;;;;;;14.57;12.63;;;;;;;14.70;82.77;95824.13;6186547;23;20200;-80
2021/09/27 00:37:29;;;;;;;14.25;12.75;;;;;;;14.75;82.89;95824.44;6187637;23;20193;-80
2021/09/27 00:39:55;;;;;;;15.37;13.87;;;;;;;14.73;82.70;95827.22;6188269;23;20204;-80
2021/09/27 00:42:20;;;;;;;15.50;13.98;;;;;;;14.69;82.94;95830.34;6163031;23;20162;-80
2021/09/27 00:44:46;;;;;;;15.25;13.10;;;;;;;14.69;83.12;95825.13;6162025;23;20158;-81
2021/09/27 00:47:11;;;;;;;15.75;14.15;;;;;;;14.68;83.38;95821.69;6187552;23;20182;-81
2021/09/27 00:49:36;;;;;;;16.50;13.15;;;;;;;14.71;83.09;95823.97;6187532;23;20177;-80
2021/09/27 00:52:02;;;;;;;15.00;13.50;;;;;;;14.77;82.69;95829.53;6186895;23;20150;-80
2021/09/27 00:54:33;;;;;;;14.77;13.27;;;;;;;14.75;82.83;95821.81;6161594;23;20182;-80
2021/09/27 00:57:08;;;;;;;16.07;13.70;;;;;;;14.75;83.15;95824.44;6187978;23;20174;-80
2021/09/27 00:59:34;;;;;;;14.87;13.37;;;;;;;14.77;82.71;95824.31;6188087;23;20150;-80
2021/09/27 01:01:59;;;;;;;13.13;11.82;;;;;;;14.86;81.89;95821.50;6186767;23;20155;-81
2021/09/27 01:04:25;;;;;;;13.90;12.40;;;;;;;14.88;82.16;95816.91;6186039;23;20161;-80
2021/09/27 01:07:02;;;;;;;15.63;13.75;;;;;;;14.86;83.04;95818.88;6186492;23;20632;-80
2021/09/27 01:10:05;;;;;;;14.40;12.98;;;;;;;14.86;83.57;95811.03;6186243;23;20158;-80
2021/09/27 01:12:49;;;;;;;14.23;12.80;;;;;;;14.87;83.84;95807.44;6185700;23;20185;-81
2021/09/27 01:15:22;;;;;;;14.23;12.75;;;;;;;14.84;84.47;95807.78;6184993;23;20379;-80
2021/09/27 01:18:07;;;;;;;16.15;13.20;;;;;;;14.85;84.33;95809.41;6185599;23;20175;-79
2021/09/27 01:21:00;;;;;;;15.93;13.63;;;;;;;14.85;84.35;95801.56;6185910;23;20253;-80
2021/09/27 01:24:03;;;;;;;14.95;13.35;;;;;;;14.82;84.69;95801.88;6185997;23;20147;-81
2021/09/27 01:27:12;;;;;;;14.60;13.10;;;;;;;14.79;84.96;95791.78;6187560;23;20170;-81
2021/09/27 01:29:46;;;;;;;14.88;13.38;;;;;;;14.80;84.94;95801.25;6154788;23;20202;-81
2021/09/27 01:32:50;;;;;;;15.43;13.05;;;;;;;14.77;85.17;95806.81;6129794;23;20158;-80
2021/09/27 01:35:27;;;;;;;15.23;13.73;;;;;;;14.72;85.49;95806.47;6128432;23;20265;-81
2021/09/27 01:38:13;;;;;;;15.10;13.52;;;;;;;14.64;85.89;95803.88;6129166;23;20592;-81
2021/09/27 01:41:08;;;;;;;14.13;12.65;;;;;;;14.59;85.50;95791.34;6130708;23;20589;-81
2021/09/27 01:43:57;;;;;;;14.90;13.35;;;;;;;14.54;85.76;95790.19;6129685;23;20147;-81
2021/09/27 01:46:33;;;;;;;15.15;13.60;;;;;;;14.45;85.74;95790.19;6129621;23;20206;-81
2021/09/27 01:49:06;;;;;;;14.60;12.93;;;;;;;14.36;85.94;95785.94;6129708;23;20144;-81
2021/09/27 01:51:44;;;;;;;15.48;13.45;;;;;;;14.27;86.20;95781.69;6129935;23;20263;-81
2021/09/27 01:54:21;;;;;;;15.23;13.45;;;;;;;14.18;86.44;95780.06;6128418;23;20191;-81
2021/09/27 01:56:58;;;;;;;15.35;13.63;;;;;;;14.11;86.69;95771.25;6129905;23;20187;-80
2021/09/27 01:59:39;;;;;;;15.18;13.57;;;;;;;14.00;87.33;95789.88;6109238;23;20481;-81
2021/09/27 02:02:21;;;;;;;15.87;12.80;;;;;;;13.98;87.39;95792.66;6159059;23;20158;-81
2021/09/27 02:04:56;;;;;;;14.65;13.02;;;;;;;13.95;87.32;95792.13;6185033;23;20193;-81
2021/09/27 02:07:22;;;;;;;17.13;13.35;;;;;;;13.94;87.39;95795.72;6185270;23;20174;-80
2021/09/27 02:09:54;;;;;;;14.48;12.98;;;;;;;13.87;87.21;95801.63;6185877;23;20168;-81
2021/09/27 02:12:25;;;;;;;15.30;12.90;;;;;;;13.82;87.66;95796.03;6185344;23;20150;-81
2021/09/27 02:15:15;;;;;;;14.52;12.90;;;;;;;13.78;88.03;95797.38;6184283;23;20612;-81
2021/09/27 02:17:47;;;;;;;14.63;13.00;;;;;;;13.76;87.72;95801.09;6185430;23;20185;-81
2021/09/27 02:20:21;;;;;;;15.37;13.73;;;;;;;13.71;87.86;95795.56;6185126;23;20135;-80
2021/09/27 02:23:08;;;;;;;14.73;12.57;;;;;;;13.71;88.06;95803.38;6160711;23;20184;-80
2021/09/27 02:25:35;;;;;;;13.90;12.07;;;;;;;13.69;87.77;95800.91;6186135;23;20141;-80
2021/09/27 02:28:10;;;;;;;14.10;12.70;;;;;;;13.69;87.78;95794.88;6160499;23;20250;-80
2021/09/27 02:30:45;;;;;;;14.70;12.87;;;;;;;13.58;87.89;95798.59;6185702;23;20154;-80
2021/09/27 02:33:34;;;;;;;14.73;12.90;;;;;;;13.52;88.67;95797.47;6185250;23;20150;-80
2021/09/27 02:36:01;;;;;;;15.60;13.00;;;;;;;13.48;88.78;95797.94;6156563;23;20293;-81
2021/09/27 02:38:35;;;;;;;17.50;12.27;;;;;;;13.43;88.90;95795.81;6185040;23;20166;-81
2021/09/27 02:41:18;;;;;;;13.17;11.30;;;;;;;13.48;89.12;95803.97;6185007;23;20154;-80
2021/09/27 02:43:44;;;;;;;16.63;11.47;;;;;;;13.54;88.54;95800.72;6184662;23;20525;-80
2021/09/27 02:46:11;;;;;;;12.83;11.47;;;;;;;13.66;88.19;95797.81;6185486;23;20174;-81
2021/09/27 02:48:42;;;;;;;12.27;10.40;;;;;;;13.70;87.93;95806.97;6161111;23;20165;-80
2021/09/27 02:51:13;;;;;;;12.17;10.97;;;;;;;13.70;88.37;95806.97;6185056;23;20155;-80
2021/09/27 02:53:38;;;;;;;12.40;10.53;;;;;;;13.85;87.54;95808.78;6184644;23;20159;-81
2021/09/27 02:56:26;;;;;;;12.43;11.03;;;;;;;13.83;87.18;95805.50;6184289;23;20190;-80
2021/09/27 02:59:15;;;;;;;12.13;10.90;;;;;;;13.74;87.35;95805.66;6184912;23;20159;-80
2021/09/27 03:01:47;;;;;;;12.93;11.33;;;;;;;13.67;87.89;95808.09;6159512;23;20181;-80
2021/09/27 03:04:44;;;;;;;11.87;10.57;;;;;;;13.63;87.85;95801.56;6185797;23;20178;-80
2021/09/27 03:07:23;;;;;;;12.27;10.63;;;;;;;13.60;88.35;95807.94;6186357;23;20234;-80
2021/09/27 03:10:07;;;;;;;11.70;10.43;;;;;;;13.60;88.41;95804.47;6187801;23;20154;-81
2021/09/27 03:12:38;;;;;;;12.47;11.13;;;;;;;13.54;88.32;95811.16;6186778;23;20166;-80
2021/09/27 03:15:26;;;;;;;12.90;11.17;;;;;;;13.54;88.85;95805.13;6184430;23;20643;-80
2021/09/27 03:18:06;;;;;;;11.87;10.67;;;;;;;13.58;88.80;95801.22;6185666;23;20170;-80
2021/09/27 03:20:55;;;;;;;13.00;10.10;;;;;;;13.55;88.49;95804.16;6160819;23;20147;-81
2021/09/27 03:23:58;;;;;;;11.70;10.40;;;;;;;13.52;88.50;95801.88;6185904;23;20139;-81
2021/09/27 03:26:31;;;;;;;12.90;10.03;;;;;;;13.52;88.57;95805.31;6184457;23;20178;-80
2021/09/27 03:29:30;;;;;;;11.57;10.10;;;;;;;13.51;88.83;95805.44;6185151;23;20226;-80
2021/09/27 03:32:16;;;;;;;12.50;11.27;;;;;;;13.42;88.72;95795.94;6184965;23;20150;-80
2021/09/27 03:34:55;;;;;;;12.40;11.10;;;;;;;13.35;88.74;95800.19;6186457;23;20241;-80
2021/09/27 03:37:54;;;;;;;12.00;10.77;;;;;;;13.22;89.18;95801.44;6184572;23;20233;-81
2021/09/27 03:40:39;;;;;;;12.67;10.83;;;;;;;13.20;89.22;95798.19;6184607;23;20158;-80
2021/09/27 03:43:18;;;;;;;11.87;10.30;;;;;;;13.15;89.00;95803.00;6186305;23;20135;-80
2021/09/27 03:45:50;;;;;;;12.40;10.50;;;;;;;13.10;89.40;95800.06;6164354;23;20135;-81
2021/09/27 03:48:20;;;;;;;12.13;10.47;;;;;;;13.10;89.74;95800.06;6186577;23;20155;-80
2021/09/27 03:50:51;;;;;;;11.83;9.63;;;;;;;13.07;89.50;95797.75;6184901;23;20134;-80
2021/09/27 03:53:32;;;;;;;11.90;10.70;;;;;;;12.98;90.23;95793.47;6159814;23;20543;-80
2021/09/27 03:56:05;;;;;;;12.90;10.97;;;;;;;12.96;90.31;95795.44;6184578;23;20196;-80
2021/09/27 03:58:37;;;;;;;11.80;10.60;;;;;;;12.98;90.53;95798.69;6159736;23;20158;-80
2021/09/27 04:01:09;;;;;;;12.93;10.30;;;;;;;13.01;90.32;95793.19;6184671;23;20163;-79
2021/09/27 04:04:06;;;;;;;12.53;10.87;;;;;;;12.97;90.30;95789.25;6167495;23;20163;-84
2021/09/27 04:06:48;;;;;;;11.43;10.33;;;;;;;12.93;90.34;95780.13;6187193;23;20178;-79
2021/09/27 04:09:30;;;;;;;11.07;9.80;;;;;;;12.90;90.08;95780.44;6185019;23;20230;-78
2021/09/27 04:12:07;;;;;;;12.50;10.30;;;;;;;12.88;90.29;95782.34;6185580;23;20162;-79
2021/09/27 04:15:00;;;;;;;12.57;10.07;;;;;;;12.80;89.96;95784.94;6180184;23;20173;-83
2021/09/27 04:17:58;;;;;;;10.57;9.03;;;;;;;12.77;90.26;95786.88;6154554;23;20727;-83
2021/09/27 04:20:51;;;;;;;10.83;9.43;;;;;;;12.75;90.30;95785.41;6183551;23;20158;-81
2021/09/27 04:23:36;;;;;;;12.43;10.00;;;;;;;12.75;90.71;95786.22;6185156;23;20201;-80
2021/09/27 04:26:23;;;;;;;9.80;8.80;;;;;;;12.84;90.36;95789.69;6186166;23;20178;-81
2021/09/27 04:29:24;;;;;;;12.47;10.13;;;;;;;12.79;90.44;95783.28;6187703;23;20139;-82
2021/09/27 04:32:30;;;;;;;10.50;9.40;;;;;;;12.75;90.49;95788.81;6188803;23;20241;-80
2021/09/27 04:35:14;;;;;;;11.67;10.47;;;;;;;12.73;90.81;95779.53;6188620;23;20166;-79
2021/09/27 04:37:39;;;;;;;10.70;9.53;;;;;;;12.71;90.73;95781.47;6185806;23;20228;-79
2021/09/27 04:40:08;;;;;;;11.43;9.63;;;;;;;12.67;90.91;95774.94;6185099;23;20154;-80
2021/09/27 04:42:55;;;;;;;10.73;9.20;;;;;;;12.72;90.96;95778.72;6169013;23;20162;-79
2021/09/27 04:45:49;;;;;;;11.53;9.70;;;;;;;12.65;91.05;95782.09;6210456;23;20131;-80
2021/09/27 04:48:44;;;;;;;10.23;9.10;;;;;;;12.63;90.98;95782.25;6186031;23;20139;-78
2021/09/27 04:51:26;;;;;;;10.60;9.50;;;;;;;12.60;91.03;95782.53;6203057;23;20151;-79
2021/09/27 04:54:24;;;;;;;10.27;9.23;;;;;;;12.56;90.94;95791.66;6185273;23;20145;-79
2021/09/27 04:57:02;;;;;;;10.90;9.03;;;;;;;12.54;91.01;95790.16;6210746;23;20170;-78
2021/09/27 04:59:39;;;;;;;11.20;9.23;;;;;;;12.53;91.39;95785.91;6186598;23;20139;-79
2021/09/27 05:02:43;;;;;;;9.90;8.93;;;;;;;12.58;90.77;95791.50;6185262;23;20155;-80
2021/09/27 05:05:17;;;;;;;12.63;10.00;;;;;;;12.61;90.95;95791.19;6210599;23;20191;-78
2021/09/27 05:07:55;;;;;;;9.83;8.83;;;;;;;12.54;91.08;95784.94;6211172;23;20190;-78
2021/09/27 05:10:45;;;;;;;11.03;9.50;;;;;;;12.49;91.02;95777.59;6212037;23;20152;-78
2021/09/27 05:13:32;;;;;;;13.60;9.43;;;;;;;12.46;91.06;95786.56;6211376;23;20211;-78
2021/09/27 05:16:25;;;;;;;10.50;9.50;;;;;;;12.44;91.26;95779.84;6210964;23;20201;-78
2021/09/27 05:19:11;;;;;;;12.07;9.77;;;;;;;12.45;91.09;95781.47;6211136;23;20182;-78
2021/09/27 05:21:48;;;;;;;12.63;10.20;;;;;;;12.42;91.14;95790.41;6210696;23;20161;-78
2021/09/27 05:24:36;;;;;;;11.57;10.30;;;;;;;12.40;91.05;95783.72;6212870;23;20141;-79
2021/09/27 05:27:11;;;;;;;10.90;9.47;;;;;;;12.38;91.03;95785.69;6212825;23;20162;-77
2021/09/27 05:30:03;;;;;;;12.23;9.93;;;;;;;12.38;91.48;95791.72;6213025;23;20197;-80
2021/09/27 05:32:51;;;;;;;12.37;9.80;;;;;;;12.41;91.72;95790.56;6188435;23;20166;-77
2021/09/27 05:35:41;;;;;;;10.73;9.33;;;;;;;12.50;91.23;95797.47;6188483;23;20226;-77
2021/09/27 05:38:21;;;;;;;10.40;9.30;;;;;;;12.60;91.03;95795.56;6214713;23;20139;-77
2021/09/27 05:41:05;;;;;;;11.73;10.00;;;;;;;12.66;91.00;95796.75;6188262;23;20158;-76
2021/09/27 05:44:22;;;;;;;13.07;9.17;;;;;;;12.83;90.57;95803.69;6212131;23;20166;-77
2021/09/27 05:46:50;;;;;;;11.53;9.13;;;;;;;12.99;90.22;95808.19;6195836;23;20197;-76
2021/09/27 05:49:53;;;;;;;10.30;9.27;;;;;;;13.14;89.70;95808.38;6213271;23;20149;-77
2021/09/27 05:52:35;;;;;;;10.90;9.37;;;;;;;13.19;89.49;95800.91;6212559;23;20158;-78
2021/09/27 05:55:08;;;;;;;11.93;9.20;;;;;;;13.34;89.19;95807.22;6171355;23;20222;-80
2021/09/27 05:57:44;;;;;;;11.53;9.87;;;;;;;13.38;88.94;95808.50;6168629;23;20186;-79
2021/09/27 06:00:28;;;;;;;10.13;9.13;;;;;;;13.45;88.43;95811.31;6191477;23;20209;-79
2021/09/27 06:03:12;;;;;;;11.00;9.13;;;;;;;13.46;88.54;95811.16;6213152;23;20149;-76
2021/09/27 06:05:44;;;;;;;10.33;8.37;;;;;;;13.65;87.81;95801.41;6211894;23;20151;-77
2021/09/27 06:08:24;;;;;;;9.07;8.13;;;;;;;13.74;87.34;95803.06;6212168;23;20162;-77
2021/09/27 06:11:11;;;;;;;10.27;9.07;;;;;;;13.84;87.16;95807.13;6212685;23;20173;-77
2021/09/27 06:13:42;;;;;;;9.37;8.13;;;;;;;13.91;86.58;95806.50;6212695;23;20156;-77
2021/09/27 06:16:21;;;;;;;10.13;8.67;;;;;;;14.01;86.34;95807.97;6187525;23;20174;-77
2021/09/27 06:19:17;;;;;;;10.80;8.13;;;;;;;14.06;85.85;95804.88;6187491;23;20142;-77
2021/09/27 06:22:01;;;;;;;12.13;8.27;;;;;;;14.06;85.57;95797.88;6213226;23;20146;-78
2021/09/27 06:24:53;;;;;;;10.50;9.07;;;;;;;14.06;85.68;95800.47;6211932;23;20170;-77
2021/09/27 06:27:45;;;;;;;10.77;8.43;;;;;;;14.02;85.91;95793.13;6187010;23;20190;-78
2021/09/27 06:30:22;;;;;;;11.63;8.10;;;;;;;14.01;85.68;95791.50;6187846;23;20182;-76
2021/09/27 06:32:53;;;;;;;9.13;7.60;;;;;;;13.94;85.75;95790.50;6186883;23;20174;-77
2021/09/27 06:35:22;;;;;;;9.40;8.03;;;;;;;14.00;85.43;95797.69;6211731;23;20174;-76
2021/09/27 06:37:48;;;;;;;10.33;7.50;;;;;;;14.03;85.69;95792.13;6212405;23;20181;-76
2021/09/27 06:40:14;;;;;;;8.43;7.63;;;;;;;14.09;85.27;95794.91;6207474;23;20151;-78
2021/09/27 06:42:39;;;;;;;8.87;7.97;;;;;;;14.15;85.10;95791.66;6182064;23;20234;-78
2021/09/27 06:45:06;;;;;;;9.97;8.40;;;;;;;14.09;85.00;95797.53;6184196;23;20170;-77
2021/09/27 06:47:32;;;;;;;10.53;8.87;;;;;;;14.14;85.01;95799.66;6211637;23;20162;-76
2021/09/27 06:49:57;;;;;;;10.63;8.27;;;;;;;14.16;84.89;95797.72;6212389;23;20139;-76
2021/09/27 06:52:23;;;;;;;9.53;8.57;;;;;;;14.15;85.01;95799.50;6211629;23;20158;-79
2021/09/27 06:54:48;;;;;;;8.20;7.30;;;;;;;14.20;84.93;95796.38;6186469;23;20229;-76
2021/09/27 06:57:13;;;;;;;9.00;7.60;;;;;;;14.28;84.62;95803.41;6212011;23;20201;-75
2021/09/27 06:59:39;;;;;;;9.97;7.67;;;;;;;14.28;85.01;95795.56;6210920;23;20195;-77
2021/09/27 07:02:04;;;;;;;8.00;7.20;;;;;;;14.41;84.81;95799.31;6211146;23;20146;-81
2021/09/27 07:04:30;;;;;;;9.13;8.20;;;;;;;14.52;84.46;95797.38;6177775;23;20249;-77
2021/09/27 07:06:56;;;;;;;9.60;8.60;;;;;;;14.55;84.34;95797.03;6183686;23;20200;-78
2021/09/27 07:09:21;;;;;;;8.88;7.78;;;;;;;14.60;84.33;95798.19;6185596;23;20210;-80
2021/09/27 07:11:47;;;;;;;8.77;7.50;;;;;;;14.70;83.70;95792.78;6182069;23;20159;-78
2021/09/27 07:14:12;;;;;;;10.00;7.90;;;;;;;14.79;83.51;95783.94;6180976;23;20185;-79
2021/09/27 07:16:38;;;;;;;11.87;8.27;;;;;;;14.88;82.95;95785.53;6180678;23;20190;-78
2021/09/27 07:19:05;;;;;;;8.57;7.68;;;;;;;14.92;82.59;95793.84;6156501;23;20163;-78
2021/09/27 07:21:31;;;;;;;8.07;7.05;;;;;;;14.93;83.06;95791.09;6153561;23;20198;-80
2021/09/27 07:23:56;;;;;;;9.55;8.13;;;;;;;14.94;82.52;95790.09;6157014;23;20158;-78
2021/09/27 07:26:22;;;;;;;8.95;8.05;;;;;;;14.98;82.56;95798.41;6179981;23;20182;-78
2021/09/27 07:28:52;;;;;;;8.93;8.00;;;;;;;15.02;82.54;95791.88;6181739;23;20242;-79
2021/09/27 07:31:19;;;;;;;9.55;8.00;;;;;;;15.05;82.63;95790.72;6177983;23;20158;-79
2021/09/27 07:33:44;;;;;;;10.00;8.00;;;;;;;15.14;82.59;95795.75;6178726;23;20949;-78
2021/09/27 07:36:09;;;;;;;9.38;8.35;;;;;;;15.20;82.81;95796.88;6155987;23;20189;-79
2021/09/27 07:38:36;;;;;;;8.63;7.80;;;;;;;15.25;82.14;95803.22;6180631;23;20229;-79
2021/09/27 07:41:01;;;;;;;9.02;8.13;;;;;;;15.41;81.37;95804.94;6180984;23;20158;-78
2021/09/27 07:43:27;;;;;;;7.85;7.05;;;;;;;15.45;80.79;95808.03;6181543;23;20159;-78
2021/09/27 07:45:52;;;;;;;8.35;7.53;;;;;;;15.42;80.96;95806.56;6183285;23;20228;-80
2021/09/27 07:48:18;;;;;;;8.60;7.68;;;;;;;15.43;80.66;95808.19;6185524;23;20165;-79
2021/09/27 07:50:46;;;;;;;8.63;6.88;;;;;;;15.52;79.66;95808.97;6186034;23;20213;-79
2021/09/27 07:53:13;;;;;;;9.45;7.55;;;;;;;15.58;79.52;95793.41;6186298;23;20158;-80
2021/09/27 07:55:38;;;;;;;8.73;7.13;;;;;;;15.65;79.22;95800.63;6186432;23;20219;-80
2021/09/27 07:58:04;;;;;;;8.98;7.15;;;;;;;15.71;79.34;95807.75;6183763;23;20630;-79
2021/09/27 08:00:30;;;;;;;8.55;6.97;;;;;;;15.76;78.27;95811.50;6185381;23;20165;-80
2021/09/27 08:02:56;;;;;;;6.90;6.20;;;;;;;15.87;77.38;95812.88;6185607;23;20166;-80
2021/09/27 08:05:24;;;;;;;7.90;6.30;;;;;;;15.98;76.33;95816.91;6160380;23;20616;-80
2021/09/27 08:07:49;;;;;;;5.47;4.97;;;;;;;16.16;75.05;95820.03;6160134;23;20179;-78
2021/09/27 08:10:17;;;;;;;5.97;5.38;;;;;;;16.50;74.36;95817.00;6207353;23;20170;-81
2021/09/27 08:12:43;;;;;;;5.82;5.32;;;;;;;16.86;73.97;95817.16;6169073;23;20167;-81
2021/09/27 08:15:13;;;;;;;6.45;5.85;;;;;;;17.22;72.45;95814.63;6158915;23;20225;-81
2021/09/27 08:17:39;;;;;;;7.60;6.32;;;;;;;17.36;72.73;95814.81;6184629;23;20166;-81
2021/09/27 08:20:07;;;;;;;6.88;5.93;;;;;;;17.58;71.91;95813.88;6184535;23;20162;-81
2021/09/27 08:22:32;;;;;;;6.85;5.70;;;;;;;17.78;70.74;95822.00;6184595;23;20178;-81
2021/09/27 08:24:58;;;;;;;6.25;5.63;;;;;;;17.87;69.69;95814.84;6159053;23;20154;-81
2021/09/27 08:27:23;;;;;;;9.48;6.10;;;;;;;17.66;70.49;95812.94;6158772;23;20182;-83
2021/09/27 08:29:49;;;;;;;6.13;5.53;;;;;;;17.81;70.41;95808.50;6160002;23;20216;-82
2021/09/27 08:32:14;;;;;;;6.60;6.00;;;;;;;17.81;70.03;95798.81;6160443;23;20163;-82
2021/09/27 08:34:41;;;;;;;6.63;6.00;;;;;;;17.93;69.50;95806.19;6184278;23;20177;-82
2021/09/27 08:37:07;;;;;;;5.82;5.22;;;;;;;17.82;68.81;95815.38;6184544;23;20189;-81
2021/09/27 08:39:32;;;;;;;4.97;4.47;;;;;;;17.73;68.23;95811.25;6159671;23;20190;-81
2021/09/27 08:42:11;;;;;;;5.00;4.25;;;;;;;17.72;66.64;95817.50;6186452;23;20173;-81
2021/09/27 08:44:56;;;;;;;7.93;4.63;;;;;;;17.60;66.67;95816.31;6159657;23;20147;-81
2021/09/27 08:47:30;;;;;;;5.18;4.70;;;;;;;17.87;67.09;95818.28;6184935;23;20200;-82
2021/09/27 08:50:12;;;;;;;4.70;4.30;;;;;;;18.09;66.21;95816.47;6185674;23;20146;-82
2021/09/27 08:52:39;;;;;;;6.88;4.35;;;;;;;18.04;65.05;95821.47;6159609;23;20155;-80
2021/09/27 08:55:08;;;;;;;5.32;3.67;;;;;;;18.08;64.82;95814.84;6158402;23;20597;-81
2021/09/27 08:57:36;;;;;;;4.72;3.63;;;;;;;18.03;65.14;95811.97;6187086;23;20202;-81
2021/09/27 09:00:31;;;;;;;4.05;3.72;;;;;;;17.93;64.25;95811.44;6185466;23;20158;-81
2021/09/27 09:03:19;;;;;;;4.85;4.38;;;;;;;18.20;64.67;95813.34;6160445;23;20159;-81
2021/09/27 09:06:06;;;;;;;4.07;3.70;;;;;;;18.35;64.35;95814.06;6160026;23;20193;-81
2021/09/27 09:08:41;;;;;;;5.18;3.65;;;;;;;18.56;63.69;95804.56;6185842;23;20585;-81
2021/09/27 09:11:26;;;;;;;4.97;4.20;;;;;;;18.48;62.90;95809.94;6160288;23;20154;-81
2021/09/27 09:13:58;;;;;;;4.50;3.90;;;;;;;18.60;62.29;95803.16;6184402;23;20606;-81
2021/09/27 09:16:27;;;;;;;8.02;4.13;;;;;;;18.72;62.64;95813.97;6185391;23;20205;-81
2021/09/27 09:18:57;;;;;;;3.80;3.47;;;;;;;18.84;63.06;95808.03;6185432;23;20150;-82
2021/09/27 09:21:35;;;;;;;4.13;3.83;;;;;;;18.89;61.31;95807.44;6188247;23;20147;-81
2021/09/27 09:24:05;;;;;;;3.75;3.30;;;;;;;18.93;62.90;95809.50;6158517;23;20166;-82
2021/09/27 09:26:35;;;;;;;4.55;3.53;;;;;;;19.06;61.65;95810.56;6159252;23;20224;-82
2021/09/27 09:29:00;;;;;;;4.20;3.80;;;;;;;19.13;61.24;95809.59;6186992;23;20184;-80
2021/09/27 09:31:35;;;;;;;5.07;4.10;;;;;;;19.00;61.81;95808.72;6158445;23;20186;-80
2021/09/27 09:34:05;;;;;;;5.18;3.50;;;;;;;19.21;60.93;95811.25;6182958;23;20153;-80
2021/09/27 09:36:35;;;;;;;3.67;3.38;;;;;;;19.42;60.07;95805.88;6158952;23;20186;-81
2021/09/27 09:39:12;;;;;;;3.67;3.38;;;;;;;19.46;60.15;95809.78;6184036;23;20159;-81
2021/09/27 09:41:49;;;;;;;3.50;3.20;;;;;;;19.59;59.69;95810.84;6159329;23;20161;-81
2021/09/27 09:44:24;;;;;;;3.38;3.08;;;;;;;19.34;58.16;95803.41;6158592;23;20186;-82
2021/09/27 09:47:08;;;;;;;3.35;3.08;;;;;;;19.58;58.61;95811.88;6183485;23;20203;-80
2021/09/27 09:49:55;;;;;;;6.72;4.32;;;;;;;19.59;59.73;95813.47;6183964;23;20146;-81
2021/09/27 09:52:25;;;;;;;6.60;4.30;;;;;;;19.70;60.10;95808.47;6185403;23;20495;-80
2021/09/27 09:54:52;;;;;;;5.78;4.18;;;;;;;19.82;59.60;95811.34;6182626;23;20725;-81
2021/09/27 09:57:28;;;;;;;4.60;4.20;;;;;;;19.63;59.76;95806.84;6183463;23;20225;-81
2021/09/27 10:00:08;;;;;;;4.03;3.63;;;;;;;19.41;60.63;95812.16;6159333;23;20519;-81
2021/09/27 10:02:38;;;;;;;3.75;3.45;;;;;;;19.13;59.38;95808.78;6158895;23;20155;-79
2021/09/27 10:05:22;;;;;;;5.18;3.83;;;;;;;19.43;58.82;95807.50;6183091;23;20146;-78
2021/09/27 10:07:54;;;;;;;3.65;3.35;;;;;;;19.30;58.95;95810.09;6158622;23;20182;-80
2021/09/27 10:10:32;;;;;;;3.60;3.30;;;;;;;19.20;59.80;95807.00;6198728;23;20242;-79
2021/09/27 10:13:00;;;;;;;4.72;3.47;;;;;;;19.11;59.60;95806.34;6202633;23;20155;-78
2021/09/27 10:15:34;;;;;;;3.80;3.20;;;;;;;19.38;59.55;95809.13;6182977;23;20182;-78
2021/09/27 10:18:29;;;;;;;4.53;3.40;;;;;;;19.34;58.15;95808.69;6185193;23;20174;-79
2021/09/27 10:21:15;;;;;;;3.97;2.92;;;;;;;19.67;57.70;95808.03;6183339;23;20618;-81
2021/09/27 10:23:45;;;;;;;4.45;3.85;;;;;;;19.68;60.02;95804.41;6182210;23;20150;-80
2021/09/27 10:26:16;;;;;;;5.38;3.80;;;;;;;19.78;59.76;95804.84;6183694;23;20213;-80
2021/09/27 10:28:41;;;;;;;3.83;3.53;;;;;;;19.84;58.67;95795.34;6183214;23;20162;-81
2021/09/27 10:31:08;;;;;;;3.60;3.30;;;;;;;19.67;58.12;95805.41;6183664;23;20158;-80
2021/09/27 10:33:39;;;;;;;4.10;3.15;;;;;;;19.87;58.10;95801.00;6183078;23;20146;-78
2021/09/27 10:36:08;;;;;;;4.22;3.30;;;;;;;19.56;57.63;95800.69;6157207;23;20183;-78
2021/09/27 10:38:42;;;;;;;4.38;3.90;;;;;;;19.25;58.74;95801.97;6159863;23;20166;-78
2021/09/27 10:41:35;;;;;;;3.95;3.28;;;;;;;19.16;59.33;95806.56;6159862;23;20161;-77
2021/09/27 10:44:05;;;;;;;3.92;3.53;;;;;;;19.15;60.01;95798.88;6150690;23;20158;-80
2021/09/27 10:46:36;;;;;;;4.22;3.30;;;;;;;18.92;59.85;95801.78;6160001;23;20178;-80
2021/09/27 10:49:04;;;;;;;3.45;3.15;;;;;;;18.88;60.80;95809.25;6185567;23;20437;-80
2021/09/27 10:51:38;;;;;;;4.40;3.30;;;;;;;18.75;60.94;95798.66;6187715;23;20186;-80
2021/09/27 10:54:42;;;;;;;4.28;3.15;;;;;;;18.81;61.05;95792.59;6188693;23;20592;-80
2021/09/27 10:57:17;;;;;;;3.63;2.95;;;;;;;18.98;60.19;95798.38;6188823;23;20182;-82
2021/09/27 10:59:59;;;;;;;3.78;3.05;;;;;;;19.11;59.70;95795.03;6189257;23;20216;-81
2021/09/27 11:02:40;;;;;;;3.53;3.22;;;;;;;19.09;59.76;95786.50;6189189;23;20154;-80
2021/09/27 11:05:29;;;;;;;3.60;3.20;;;;;;;19.26;58.04;95787.81;6188686;23;20178;-80
2021/09/27 11:07:56;;;;;;;4.35;3.42;;;;;;;19.22;57.48;95784.75;6164879;23;20182;-81
2021/09/27 11:10:38;;;;;;;4.03;3.10;;;;;;;19.39;55.73;95781.78;6189716;23;20158;-80
2021/09/27 11:13:03;;;;;;;3.10;2.70;;;;;;;19.47;56.01;95779.78;6187654;23;20230;-80
2021/09/27 11:15:31;;;;;;;3.70;2.72;;;;;;;19.42;56.14;95779.56;6190997;23;20546;-80
2021/09/27 11:18:09;;;;;;;3.15;2.85;;;;;;;19.64;55.61;95769.75;6160541;23;20175;-80
2021/09/27 11:20:50;;;;;;;2.90;2.70;;;;;;;19.45;56.62;95784.44;6186739;23;20585;-82
2021/09/27 11:23:27;;;;;;;5.43;3.22;;;;;;;19.45;56.49;95783.63;6186820;23;20185;-80
2021/09/27 11:26:18;;;;;;;3.78;2.60;;;;;;;19.53;56.51;95786.91;6163205;23;20221;-80
2021/09/27 11:29:46;;;;;;;3.15;2.85;;;;;;;19.61;57.79;95790.38;6188229;23;20644;-79
2021/09/27 11:32:41;;;;;;;2.92;2.72;;;;;;;19.85;57.78;95787.22;6080586;23;20204;-79
2021/09/27 11:35:15;;;;;;;3.47;3.08;;;;;;;19.91;55.96;95780.34;6101321;23;20195;-79
2021/09/27 11:37:41;;;;;;;2.72;2.45;;;;;;;19.96;56.60;95784.00;6127931;23;20179;-79
2021/09/27 11:40:06;;;;;;;3.40;2.72;;;;;;;19.72;57.49;95776.66;6129363;23;20220;-79
2021/09/27 11:42:42;;;;;;;3.10;2.80;;;;;;;19.98;56.67;95787.25;6140387;23;20231;-80
2021/09/27 11:45:15;;;;;;;3.25;2.85;;;;;;;19.90;55.66;95784.00;6133874;23;20144;-79
2021/09/27 11:47:41;;;;;;;3.63;2.95;;;;;;;19.83;56.58;95783.97;6140227;23;20175;-81
2021/09/27 11:50:14;;;;;;;3.33;2.63;;;;;;;19.84;56.68;95784.78;6133384;23;20163;-78
2021/09/27 11:52:56;;;;;;;3.20;2.65;;;;;;;19.80;55.94;95787.03;6109461;23;20156;-78
2021/09/27 11:55:32;;;;;;;2.90;2.60;;;;;;;19.80;56.22;95782.56;6131554;23;20187;-79
2021/09/27 11:58:18;;;;;;;2.80;2.60;;;;;;;19.87;56.63;95782.56;6106460;23;20214;-80
2021/09/27 12:00:50;;;;;;;3.30;2.63;;;;;;;19.91;57.13;95789.06;6107764;23;20159;-80
2021/09/27 12:03:36;;;;;;;2.92;2.55;;;;;;;19.97;57.60;95785.66;6174965;23;20162;-80
2021/09/27 12:06:09;;;;;;;4.20;2.70;;;;;;;19.98;57.47;95787.25;6173336;23;20194;-79
2021/09/27 12:08:44;;;;;;;2.97;2.72;;;;;;;19.71;58.31;95791.66;6210907;23;20127;-79